createdAt,value
2023-10-23T00:01:01.007Z,16.08
2023-10-23T00:03:28.862Z,14.80
2023-10-23T00:05:56.514Z,17.42
2023-10-23T00:08:24.032Z,19.05
2023-10-23T00:10:51.540Z,19.65
2023-10-23T00:13:19.004Z,21.00
2023-10-23T00:15:46.663Z,19.38
2023-10-23T00:18:14.145Z,19.15
2023-10-23T00:20:41.752Z,18.05
2023-10-23T00:23:09.322Z,17.90
2023-10-23T00:25:36.829Z,16.70
2023-10-23T00:28:04.364Z,17.95
2023-10-23T00:30:35.949Z,16.50
2023-10-23T00:33:03.687Z,17.73
2023-10-23T00:35:31.267Z,18.40
2023-10-23T00:37:59.248Z,17.77
2023-10-23T00:40:26.666Z,22.27
2023-10-23T00:42:54.154Z,23.92
2023-10-23T00:45:21.742Z,27.13
2023-10-23T00:47:49.438Z,25.75
2023-10-23T00:50:17.412Z,29.25
2023-10-23T00:52:45.792Z,27.20
2023-10-23T00:55:13.369Z,25.55
2023-10-23T00:57:40.877Z,26.30
2023-10-23T01:00:09.552Z,26.92
2023-10-23T01:02:37.337Z,27.13
2023-10-23T01:05:05.717Z,25.83
2023-10-23T01:07:33.799Z,26.08
2023-10-23T01:10:01.261Z,26.55
2023-10-23T01:12:29.567Z,26.27
2023-10-23T01:14:57.026Z,25.95
2023-10-23T01:17:24.430Z,26.00
2023-10-23T01:19:53.007Z,24.67
2023-10-23T01:22:20.512Z,24.23
2023-10-23T01:24:49.549Z,22.73
2023-10-23T01:27:17.131Z,22.73
2023-10-23T01:29:44.639Z,20.17
2023-10-23T01:32:12.635Z,18.88
2023-10-23T01:34:40.131Z,19.23
2023-10-23T01:37:07.751Z,19.05
2023-10-23T01:39:35.197Z,19.23
2023-10-23T01:42:02.672Z,17.65
2023-10-23T01:44:30.209Z,16.52
2023-10-23T01:46:57.718Z,17.27
2023-10-23T01:49:25.120Z,16.80
2023-10-23T01:51:52.610Z,18.27
2023-10-23T01:54:20.093Z,19.13
2023-10-23T01:56:48.539Z,20.48
2023-10-23T01:59:17.223Z,21.17
2023-10-23T02:01:44.718Z,20.65
2023-10-23T02:04:12.420Z,20.42
2023-10-23T02:06:40.191Z,20.85
2023-10-23T02:09:09.183Z,22.00
2023-10-23T02:11:37.086Z,20.73
2023-10-23T02:14:05.277Z,20.33
2023-10-23T02:16:32.796Z,19.98
2023-10-23T02:19:00.346Z,19.80
2023-10-23T02:21:28.108Z,20.75
2023-10-23T02:23:57.155Z,19.75
2023-10-23T02:26:25.157Z,19.30
2023-10-23T02:28:52.822Z,20.15
2023-10-23T02:31:20.865Z,19.75
2023-10-23T02:33:48.466Z,19.85
2023-10-23T02:36:16.675Z,19.38
2023-10-23T02:38:44.735Z,19.10
2023-10-23T02:41:12.187Z,19.10
2023-10-23T02:43:39.686Z,18.73
2023-10-23T02:46:07.308Z,17.08
2023-10-23T02:48:35.928Z,18.42
2023-10-23T02:51:04.005Z,18.27
2023-10-23T02:53:32.072Z,19.30
2023-10-23T02:55:59.532Z,17.80
2023-10-23T02:58:27.078Z,18.52
2023-10-23T03:00:54.568Z,18.98
2023-10-23T03:03:22.280Z,18.92
2023-10-23T03:05:49.896Z,19.55
2023-10-23T03:08:17.785Z,19.65
2023-10-23T03:10:46.042Z,18.98
2023-10-23T03:13:14.116Z,20.40
2023-10-23T03:15:41.892Z,20.70
2023-10-23T03:18:09.546Z,19.63
2023-10-23T03:20:38.029Z,20.42
2023-10-23T03:23:05.498Z,18.70
2023-10-23T03:25:32.964Z,19.95
2023-10-23T03:28:00.568Z,19.95
2023-10-23T03:30:28.246Z,18.73
2023-10-23T03:32:55.787Z,19.38
2023-10-23T03:35:23.292Z,18.10
2023-10-23T03:37:53.884Z,19.08
2023-10-23T03:40:24.414Z,19.38
2023-10-23T03:42:53.328Z,18.58
2023-10-23T03:45:20.823Z,18.83
2023-10-23T03:47:48.916Z,18.10
2023-10-23T03:50:16.416Z,17.50
2023-10-23T03:52:43.874Z,18.55
2023-10-23T03:55:11.326Z,17.00
2023-10-23T03:57:38.809Z,16.17
2023-10-23T04:00:06.852Z,16.15
2023-10-23T04:02:39.833Z,17.33
2023-10-23T04:05:07.443Z,16.23
2023-10-23T04:07:34.866Z,15.43
2023-10-23T04:10:02.523Z,14.73
2023-10-23T04:12:30.091Z,14.20
2023-10-23T04:14:57.686Z,14.50
2023-10-23T04:17:25.167Z,15.50
2023-10-23T04:19:52.912Z,14.93
2023-10-23T04:22:20.407Z,13.18
2023-10-23T04:24:48.689Z,16.35
2023-10-23T04:27:16.777Z,15.70
2023-10-23T04:29:44.224Z,15.05
2023-10-23T04:32:11.678Z,15.60
2023-10-23T04:34:39.146Z,14.27
2023-10-23T04:37:06.515Z,13.48
2023-10-23T04:39:34.066Z,11.93
2023-10-23T04:42:03.034Z,14.63
2023-10-23T04:44:30.886Z,13.50
2023-10-23T04:46:58.441Z,12.23
2023-10-23T04:49:25.956Z,15.95
2023-10-23T04:51:54.307Z,14.80
2023-10-23T04:54:21.991Z,16.50
2023-10-23T04:56:49.491Z,13.55
2023-10-23T04:59:17.126Z,14.20
2023-10-23T05:01:44.610Z,14.00
2023-10-23T05:04:12.210Z,15.07
2023-10-23T05:06:39.983Z,14.23
2023-10-23T05:09:07.798Z,17.02
2023-10-23T05:11:35.481Z,14.48
2023-10-23T05:14:02.956Z,14.73
2023-10-23T05:16:30.482Z,15.10
2023-10-23T05:18:58.051Z,15.27
2023-10-23T05:21:25.524Z,15.55
2023-10-23T05:23:52.980Z,14.82
2023-10-23T05:26:21.344Z,15.50
2023-10-23T05:28:51.295Z,15.00
2023-10-23T05:31:18.854Z,15.90
2023-10-23T05:33:46.452Z,17.13
2023-10-23T05:36:14.012Z,15.77
2023-10-23T05:38:41.667Z,14.73
2023-10-23T05:41:09.970Z,14.60
2023-10-23T05:43:37.797Z,15.98
2023-10-23T05:46:05.830Z,15.45
2023-10-23T05:48:33.521Z,16.02
2023-10-23T05:51:05.184Z,16.27
2023-10-23T05:53:32.766Z,15.50
2023-10-23T05:56:06.785Z,14.82
2023-10-23T05:58:34.735Z,14.90
2023-10-23T06:01:05.743Z,15.48
2023-10-23T06:03:33.397Z,13.20
2023-10-23T06:06:00.995Z,12.93
2023-10-23T06:08:28.462Z,13.35
2023-10-23T06:10:56.005Z,13.63
2023-10-23T06:13:23.736Z,16.13
2023-10-23T06:15:51.580Z,15.20
2023-10-23T06:18:19.164Z,15.57
2023-10-23T06:20:46.659Z,15.85
2023-10-23T06:23:14.145Z,17.77
2023-10-23T06:25:41.774Z,17.90
2023-10-23T06:28:09.431Z,19.67
2023-10-23T06:30:37.654Z,20.00
2023-10-23T06:33:05.282Z,19.98
2023-10-23T06:35:32.758Z,21.65
2023-10-23T06:38:00.346Z,20.25
2023-10-23T06:40:27.953Z,20.40
2023-10-23T06:42:55.364Z,17.98
2023-10-23T06:45:23.430Z,16.73
2023-10-23T06:47:52.164Z,15.75
2023-10-23T06:50:19.806Z,13.05
2023-10-23T06:52:47.440Z,13.93
2023-10-23T06:55:14.994Z,14.63
2023-10-23T06:57:42.573Z,13.57
2023-10-23T07:00:10.221Z,14.07
2023-10-23T07:02:37.706Z,14.38
2023-10-23T07:05:05.577Z,15.20
2023-10-23T07:07:33.165Z,14.93
2023-10-23T07:10:01.192Z,15.25
2023-10-23T07:12:29.178Z,15.02
2023-10-23T07:14:56.810Z,14.38
2023-10-23T07:17:24.306Z,13.93
2023-10-23T07:19:52.292Z,13.57
2023-10-23T07:22:19.729Z,14.13
2023-10-23T07:24:47.195Z,14.07
2023-10-23T07:27:17.831Z,11.88
2023-10-23T07:29:45.421Z,11.40
2023-10-23T07:32:13.152Z,11.50
2023-10-23T07:34:40.687Z,11.57
2023-10-23T07:37:08.145Z,13.15
2023-10-23T07:39:36.407Z,12.25
2023-10-23T07:42:04.530Z,12.05
2023-10-23T07:44:32.026Z,11.07
2023-10-23T07:46:59.568Z,11.23
2023-10-23T07:49:27.138Z,10.88
2023-10-23T07:51:54.620Z,10.35
2023-10-23T07:54:22.233Z,10.05
2023-10-23T07:56:49.770Z,8.57
2023-10-23T07:59:18.761Z,8.30
2023-10-23T08:01:46.285Z,8.23
2023-10-23T08:04:13.867Z,7.93
2023-10-23T08:06:41.516Z,9.25
2023-10-23T08:09:09.201Z,14.68
2023-10-23T08:11:36.758Z,40.38
2023-10-23T08:14:05.299Z,11.60
2023-10-23T08:16:33.254Z,8.55
2023-10-23T08:19:00.851Z,9.20
2023-10-23T08:21:29.307Z,11.85
2023-10-23T08:23:58.342Z,9.77
2023-10-23T08:26:26.081Z,9.30
2023-10-23T08:29:02.561Z,7.95
2023-10-23T08:31:38.303Z,8.45
2023-10-23T08:34:07.928Z,7.03
2023-10-23T08:36:35.880Z,7.05
2023-10-23T08:39:04.573Z,7.00
2023-10-23T08:41:32.777Z,7.90
2023-10-23T08:44:00.654Z,8.30
2023-10-23T08:46:33.231Z,7.25
2023-10-23T08:49:02.609Z,6.88
2023-10-23T08:51:31.283Z,6.82
2023-10-23T08:54:19.073Z,6.45
2023-10-23T08:56:46.785Z,8.05
2023-10-23T08:59:15.768Z,7.40
2023-10-23T09:01:43.621Z,7.68
2023-10-23T09:04:12.345Z,8.18
2023-10-23T09:06:40.691Z,8.93
2023-10-23T09:09:08.606Z,9.90
2023-10-23T09:11:40.377Z,9.18
2023-10-23T09:14:07.983Z,8.05
2023-10-23T09:16:35.714Z,8.75
2023-10-23T09:19:04.154Z,8.48
2023-10-23T09:21:33.667Z,8.25
2023-10-23T09:24:07.633Z,8.07
2023-10-23T09:26:35.201Z,8.05
2023-10-23T09:29:02.638Z,7.55
2023-10-23T09:31:30.249Z,7.00
2023-10-23T09:33:57.787Z,7.55
2023-10-23T09:36:27.432Z,7.78
2023-10-23T09:39:01.994Z,8.25
2023-10-23T09:41:30.352Z,7.82
2023-10-23T09:43:58.686Z,7.38
2023-10-23T09:46:27.352Z,8.32
2023-10-23T09:49:00.634Z,8.77
2023-10-23T09:51:38.018Z,8.63
2023-10-23T09:54:13.187Z,8.02
2023-10-23T09:56:41.698Z,7.60
2023-10-23T09:59:09.952Z,7.75
2023-10-23T10:01:38.814Z,7.82
2023-10-23T10:04:12.616Z,7.32
2023-10-23T10:06:43.947Z,7.43
2023-10-23T10:09:13.662Z,7.53
2023-10-23T10:11:50.836Z,7.72
2023-10-23T10:14:18.644Z,8.77
2023-10-23T10:16:46.460Z,7.45
2023-10-23T10:19:13.989Z,7.35
2023-10-23T10:22:01.737Z,7.68
2023-10-23T10:24:30.243Z,7.32
2023-10-23T10:26:57.858Z,7.45
2023-10-23T10:29:27.563Z,7.20
2023-10-23T10:32:12.013Z,7.30
2023-10-23T10:34:56.102Z,6.15
2023-10-23T10:37:29.112Z,6.43
2023-10-23T10:39:56.745Z,7.05
2023-10-23T10:42:27.579Z,8.10
2023-10-23T10:44:58.790Z,6.85
2023-10-23T10:47:38.723Z,5.85
2023-10-23T10:50:06.558Z,6.55
2023-10-23T10:52:40.819Z,6.28
2023-10-23T10:55:09.116Z,7.07
2023-10-23T10:57:39.148Z,7.00
2023-10-23T11:00:07.732Z,6.75
2023-10-23T11:02:35.236Z,7.15
2023-10-23T11:05:09.148Z,6.75
2023-10-23T11:07:36.848Z,6.90
2023-10-23T11:10:06.252Z,6.38
2023-10-23T11:12:33.899Z,6.70
2023-10-23T11:15:01.670Z,6.68
2023-10-23T11:17:29.258Z,6.40
2023-10-23T11:19:57.769Z,6.28
2023-10-23T11:22:25.565Z,6.10
2023-10-23T11:24:53.121Z,7.15
2023-10-23T11:27:20.678Z,5.95
2023-10-23T11:29:48.873Z,6.30
2023-10-23T11:32:17.784Z,6.07
2023-10-23T11:34:48.994Z,5.95
2023-10-23T11:37:16.949Z,5.80
2023-10-23T11:39:44.587Z,6.07
2023-10-23T11:42:12.502Z,6.88
2023-10-23T11:44:41.613Z,7.85
2023-10-23T11:47:09.563Z,7.35
2023-10-23T11:49:39.857Z,6.30
2023-10-23T11:52:07.607Z,5.70
2023-10-23T11:54:36.422Z,5.95
2023-10-23T11:57:04.624Z,5.82
2023-10-23T11:59:32.188Z,5.38
2023-10-23T12:02:00.826Z,5.82
2023-10-23T12:04:36.456Z,6.10
2023-10-23T12:07:05.898Z,6.53
2023-10-23T12:09:33.678Z,6.95
2023-10-23T12:12:01.246Z,6.15
2023-10-23T12:14:28.830Z,6.40
2023-10-23T12:16:56.265Z,7.28
2023-10-23T12:19:23.880Z,6.80
2023-10-23T12:21:51.411Z,6.95
2023-10-23T12:24:18.956Z,6.45
2023-10-23T12:26:46.388Z,6.15
2023-10-23T12:29:14.890Z,6.60
2023-10-23T12:32:01.384Z,6.10
2023-10-23T12:34:32.297Z,6.07
2023-10-23T12:37:00.416Z,6.25
2023-10-23T12:39:27.892Z,6.30
2023-10-23T12:41:55.371Z,6.70
2023-10-23T12:44:22.845Z,5.05
2023-10-23T12:46:51.812Z,5.90
2023-10-23T12:49:19.498Z,6.07
2023-10-23T12:51:47.018Z,6.10
2023-10-23T12:54:14.600Z,5.30
2023-10-23T12:56:44.373Z,5.63
2023-10-23T12:59:11.888Z,5.93
2023-10-23T13:01:39.762Z,5.53
2023-10-23T13:04:07.564Z,5.95
2023-10-23T13:06:35.091Z,6.47
2023-10-23T13:09:02.576Z,6.10
2023-10-23T13:11:31.676Z,5.45
2023-10-23T13:13:59.407Z,6.38
2023-10-23T13:16:27.553Z,5.95
2023-10-23T13:18:55.330Z,4.40
2023-10-23T13:21:31.481Z,5.32
2023-10-23T13:24:02.261Z,5.00
2023-10-23T13:26:29.867Z,5.18
2023-10-23T13:28:57.376Z,4.97
2023-10-23T13:31:28.345Z,6.30
2023-10-23T13:33:55.975Z,6.28
2023-10-23T13:36:23.500Z,6.07
2023-10-23T13:38:51.138Z,5.60
2023-10-23T13:41:18.720Z,4.90
2023-10-23T13:43:46.186Z,4.78
2023-10-23T13:46:13.968Z,4.50
2023-10-23T13:48:41.598Z,6.55
2023-10-23T13:51:10.588Z,4.50
2023-10-23T13:53:38.184Z,5.57
2023-10-23T13:56:05.829Z,5.03
2023-10-23T13:58:35.956Z,4.30
2023-10-23T14:01:05.188Z,4.00
2023-10-23T14:03:32.871Z,5.10
2023-10-23T14:06:00.502Z,5.07
2023-10-23T14:08:35.267Z,5.20
2023-10-23T14:11:57.245Z,5.13
2023-10-23T14:14:03.024Z,5.43
2023-10-23T14:16:30.667Z,5.13
2023-10-23T14:18:58.259Z,5.25
2023-10-23T14:21:25.923Z,5.78
2023-10-23T14:23:53.430Z,4.93
2023-10-23T14:26:21.243Z,5.65
2023-10-23T14:28:48.704Z,6.80
2023-10-23T14:31:16.476Z,6.15
2023-10-23T14:33:44.007Z,5.72
2023-10-23T14:36:15.996Z,5.60
2023-10-23T14:38:44.745Z,5.30
2023-10-23T14:41:12.238Z,5.55
2023-10-23T14:43:39.720Z,7.35
2023-10-23T14:46:07.527Z,7.30
2023-10-23T14:48:35.023Z,7.20
2023-10-23T14:51:02.541Z,5.13
2023-10-23T14:53:30.330Z,4.40
2023-10-23T14:55:57.929Z,6.43
2023-10-23T14:58:25.836Z,6.50
2023-10-23T15:00:53.631Z,8.27
2023-10-23T15:03:21.209Z,7.82
2023-10-23T15:05:48.696Z,9.43
2023-10-23T15:08:16.204Z,6.82
2023-10-23T15:10:43.696Z,4.97
2023-10-23T15:13:11.283Z,7.40
2023-10-23T15:15:39.255Z,5.88
2023-10-23T15:18:06.789Z,5.70
2023-10-23T15:20:34.435Z,4.95
2023-10-23T15:23:03.320Z,4.93
2023-10-23T15:25:31.506Z,5.07
2023-10-23T15:27:58.992Z,5.28
2023-10-23T15:30:26.433Z,4.00
2023-10-23T15:32:54.280Z,5.65
2023-10-23T15:35:21.979Z,4.85
2023-10-23T15:37:49.464Z,4.68
2023-10-23T15:40:17.837Z,4.72
2023-10-23T15:42:45.363Z,6.32
2023-10-23T15:45:13.053Z,5.60
2023-10-23T15:47:40.630Z,5.80
2023-10-23T15:50:08.354Z,4.53
2023-10-23T15:52:36.208Z,5.00
2023-10-23T15:55:04.970Z,4.85
2023-10-23T15:57:37.218Z,4.57
2023-10-23T16:00:04.866Z,5.75
2023-10-23T16:02:32.786Z,4.50
2023-10-23T16:05:01.232Z,4.15
2023-10-23T16:07:28.851Z,5.32
2023-10-23T16:09:56.359Z,5.10
2023-10-23T16:12:24.372Z,6.28
2023-10-23T16:14:57.137Z,7.35
2023-10-23T16:17:26.471Z,7.25
2023-10-23T16:19:54.048Z,7.80
2023-10-23T16:22:23.627Z,7.30
2023-10-23T16:24:51.128Z,9.15
2023-10-23T16:27:18.642Z,8.13
2023-10-23T16:29:47.700Z,8.38
2023-10-23T16:32:17.662Z,8.02
2023-10-23T16:34:45.277Z,7.95
2023-10-23T16:37:12.993Z,7.47
2023-10-23T16:39:40.503Z,6.90
2023-10-23T16:42:11.224Z,8.40
2023-10-23T16:44:52.773Z,7.63
2023-10-23T16:47:24.169Z,6.63
2023-10-23T16:49:54.548Z,6.70
2023-10-23T16:52:22.142Z,6.22
2023-10-23T16:54:49.886Z,5.68
2023-10-23T16:57:17.536Z,5.75
2023-10-23T16:59:48.605Z,5.72
2023-10-23T17:02:16.279Z,5.95
2023-10-23T17:04:43.998Z,6.35
2023-10-23T17:07:11.455Z,6.22
2023-10-23T17:09:41.585Z,6.75
2023-10-23T17:12:15.397Z,6.70
2023-10-23T17:14:42.922Z,6.38
2023-10-23T17:17:10.621Z,7.88
2023-10-23T17:19:40.123Z,6.97
2023-10-23T17:22:08.045Z,6.63
2023-10-23T17:24:36.602Z,6.53
2023-10-23T17:27:04.245Z,6.88
2023-10-23T17:29:37.948Z,6.90
2023-10-23T17:32:09.855Z,7.10
2023-10-23T17:34:38.326Z,7.68
2023-10-23T17:37:10.742Z,7.90
2023-10-23T17:39:38.470Z,9.60
2023-10-23T17:42:06.186Z,8.82
2023-10-23T17:44:35.958Z,9.43
2023-10-23T17:47:05.830Z,10.38
2023-10-23T17:49:33.360Z,14.45
2023-10-23T17:52:00.908Z,19.75
2023-10-23T17:54:34.275Z,15.25
2023-10-23T17:57:01.847Z,13.80
2023-10-23T17:59:29.355Z,11.45
2023-10-23T18:01:57.102Z,10.38
2023-10-23T18:04:26.748Z,14.93
2023-10-23T18:06:55.462Z,16.45
2023-10-23T18:09:25.201Z,13.93
2023-10-23T18:11:55.798Z,13.18
2023-10-23T18:14:23.795Z,11.60
2023-10-23T18:16:53.677Z,11.45
2023-10-23T18:19:24.329Z,11.15
2023-10-23T18:21:51.936Z,10.27
2023-10-23T18:24:22.329Z,10.52
2023-10-23T18:26:49.864Z,10.52
2023-10-23T18:29:17.369Z,10.32
2023-10-23T18:31:46.594Z,10.73
2023-10-23T18:34:14.120Z,11.45
2023-10-23T18:36:43.768Z,11.77
2023-10-23T18:39:11.542Z,10.48
2023-10-23T18:41:39.110Z,10.88
2023-10-23T18:44:10.687Z,9.38
2023-10-23T18:46:41.298Z,11.00
2023-10-23T18:49:16.220Z,10.60
2023-10-23T18:54:12.099Z,9.48
2023-10-23T18:56:41.221Z,9.55
2023-10-23T18:59:08.856Z,10.15
2023-10-23T19:01:36.636Z,13.48
2023-10-23T19:04:04.241Z,10.90
2023-10-23T19:06:31.968Z,11.52
2023-10-23T19:09:03.738Z,9.07
2023-10-23T19:11:31.611Z,8.45
2023-10-23T19:13:59.078Z,9.60
2023-10-23T19:16:26.730Z,8.43
2023-10-23T19:18:54.348Z,8.98
2023-10-23T19:21:21.890Z,9.43
2023-10-23T19:23:49.457Z,12.57
2023-10-23T19:26:18.663Z,9.93
2023-10-23T19:28:46.345Z,8.63
2023-10-23T19:31:15.211Z,9.02
2023-10-23T19:33:43.658Z,8.68
2023-10-23T19:36:11.486Z,9.23
2023-10-23T19:38:42.909Z,9.25
2023-10-23T19:41:17.635Z,8.98
2023-10-23T19:43:49.960Z,8.80
2023-10-23T19:46:21.199Z,8.57
2023-10-23T19:48:49.530Z,8.55
2023-10-23T19:51:19.452Z,8.38
2023-10-23T19:53:51.882Z,7.88
2023-10-23T19:56:30.060Z,7.82
2023-10-23T19:59:00.615Z,8.43
2023-10-23T20:01:28.255Z,9.35
2023-10-23T20:03:56.312Z,8.32
2023-10-23T20:06:23.908Z,7.65
2023-10-23T20:08:53.821Z,9.15
2023-10-23T20:11:22.483Z,7.93
2023-10-23T20:13:49.932Z,8.25
2023-10-23T20:16:17.508Z,7.95
2023-10-23T20:18:45.090Z,8.27
2023-10-23T20:21:15.341Z,8.07
2023-10-23T20:23:42.966Z,8.52
2023-10-23T20:26:14.111Z,8.68
2023-10-23T20:28:41.695Z,7.90
2023-10-23T20:31:23.342Z,8.50
2023-10-23T20:33:50.958Z,8.10
2023-10-23T20:36:23.419Z,8.70
2023-10-23T20:38:56.964Z,7.63
2023-10-23T20:41:25.412Z,8.60
2023-10-23T20:43:52.861Z,8.93
2023-10-23T20:46:20.479Z,9.00
2023-10-23T20:48:48.093Z,9.63
2023-10-23T20:51:16.254Z,9.23
2023-10-23T20:53:43.731Z,9.43
2023-10-23T20:56:14.140Z,9.20
2023-10-23T20:58:47.682Z,10.23
2023-10-23T21:01:15.365Z,9.32
2023-10-23T21:03:43.082Z,9.20
2023-10-23T21:06:10.761Z,8.90
2023-10-23T21:08:38.644Z,8.38
2023-10-23T21:11:07.451Z,8.48
2023-10-23T21:13:35.477Z,9.45
2023-10-23T21:16:03.380Z,9.40
2023-10-23T21:18:30.874Z,8.45
2023-10-23T21:20:58.518Z,8.57
2023-10-23T21:23:26.095Z,9.23
2023-10-23T21:25:53.577Z,8.30
2023-10-23T21:28:23.333Z,8.65
2023-10-23T21:30:50.882Z,8.45
2023-10-23T21:33:18.449Z,8.63
2023-10-23T21:35:45.883Z,8.85
2023-10-23T21:38:13.308Z,8.80
2023-10-23T21:40:40.786Z,8.80
2023-10-23T21:43:08.293Z,9.35
2023-10-23T21:45:35.789Z,8.10
2023-10-23T21:48:04.062Z,8.55
2023-10-23T21:50:31.594Z,8.45
2023-10-23T21:52:59.129Z,8.85
2023-10-23T21:55:26.922Z,8.48
2023-10-23T21:57:54.512Z,9.30
2023-10-23T22:00:28.955Z,8.13
2023-10-23T22:03:00.693Z,8.50
2023-10-23T22:05:29.325Z,9.05
2023-10-23T22:07:56.937Z,8.95
2023-10-23T22:10:28.399Z,9.20
2023-10-23T22:12:59.367Z,8.02
2023-10-23T22:15:26.872Z,8.55
2023-10-23T22:17:54.540Z,9.38
2023-10-23T22:20:22.288Z,8.73
2023-10-23T22:22:49.756Z,8.45
2023-10-23T22:25:17.357Z,8.23
2023-10-23T22:27:44.933Z,7.95
2023-10-23T22:30:12.742Z,8.05
2023-10-23T22:32:40.589Z,8.35
2023-10-23T22:35:08.296Z,7.63
2023-10-23T22:38:00.338Z,8.23
2023-10-23T22:40:23.395Z,7.55
2023-10-23T22:42:51.881Z,8.40
2023-10-23T22:45:19.401Z,8.50
2023-10-23T22:47:46.924Z,8.02
2023-10-23T22:50:14.564Z,8.18
2023-10-23T22:52:42.223Z,8.25
2023-10-23T22:55:10.185Z,8.05
2023-10-23T22:57:39.700Z,8.15
2023-10-23T23:00:10.304Z,7.82
2023-10-23T23:02:38.435Z,7.93
2023-10-23T23:05:06.323Z,8.15
2023-10-23T23:07:37.481Z,8.13
2023-10-23T23:10:07.725Z,7.97
2023-10-23T23:12:35.651Z,7.90
2023-10-23T23:15:03.341Z,8.40
2023-10-23T23:17:34.988Z,8.00
2023-10-23T23:20:04.160Z,7.90
2023-10-23T23:22:31.869Z,7.90
2023-10-23T23:24:59.509Z,7.50
2023-10-23T23:27:27.072Z,8.02
2023-10-23T23:29:55.396Z,7.70
2023-10-23T23:32:23.033Z,7.43
2023-10-23T23:34:50.619Z,8.32
2023-10-23T23:37:18.115Z,7.65
2023-10-23T23:39:45.564Z,7.72
2023-10-23T23:42:13.059Z,7.20
2023-10-23T23:44:40.816Z,7.57
2023-10-23T23:47:08.560Z,7.82
2023-10-23T23:49:36.036Z,6.97
2023-10-23T23:52:03.638Z,6.95
2023-10-23T23:54:31.436Z,6.80
2023-10-23T23:56:58.960Z,7.60
2023-10-23T23:59:26.448Z,6.45
